Time;durP1;ratioP1;P1;durP2;ratioP2;P2;SDS_P1;SDS_P2;PMS_P1;PMS_P2;Temp;Humidity;BMP_temperature;BMP_pressure;BME280_temperature;BME280_humidity;BME280_pressure;Samples;Min_cycle;Max_cycle;Signal;HPM_P1;HPM_P2
2024/03/09 00:00:42;;;;;;;42.70;19.65;;;;;;;5.12;88.40;100210.84;5203816;28;20052;-73
2024/03/09 00:03:12;;;;;;;41.92;19.85;;;;;;;5.08;88.89;100213.50;5205804;28;20037;-73
2024/03/09 00:05:43;;;;;;;39.67;18.83;;;;;;;5.03;88.84;100216.19;5203208;28;20390;-73
2024/03/09 00:08:17;;;;;;;45.30;19.60;;;;;;;4.99;89.21;100206.75;5202223;28;20021;-73
2024/03/09 00:10:49;;;;;;;49.33;21.35;;;;;;;5.01;89.89;100201.56;5206966;28;20487;-74
2024/03/09 00:13:20;;;;;;;45.97;21.52;;;;;;;5.01;89.61;100199.81;5196365;28;19964;-72
2024/03/09 00:15:51;;;;;;;42.40;21.55;;;;;;;4.96;89.66;100188.72;5197524;28;20083;-74
2024/03/09 00:18:22;;;;;;;45.42;22.00;;;;;;;4.96;90.27;100191.28;5199322;28;20204;-72
2024/03/09 00:20:53;;;;;;;44.17;21.98;;;;;;;4.96;89.80;100186.13;5194781;28;20483;-73
2024/03/09 00:23:26;;;;;;;46.47;21.83;;;;;;;4.99;90.11;100196.41;5193194;28;20508;-74
2024/03/09 00:25:57;;;;;;;42.05;20.63;;;;;;;4.92;90.50;100186.19;5193636;28;20037;-73
2024/03/09 00:28:30;;;;;;;47.10;21.35;;;;;;;5.03;89.64;100185.13;5195698;28;20384;-74
2024/03/09 00:31:02;;;;;;;42.17;19.95;;;;;;;4.94;90.37;100180.13;5196976;28;20522;-74
2024/03/09 00:33:32;;;;;;;46.22;20.50;;;;;;;5.00;90.15;100182.56;5194948;28;20193;-73
2024/03/09 00:36:03;;;;;;;46.72;21.35;;;;;;;5.02;89.88;100177.38;5191920;28;20124;-74
2024/03/09 00:38:34;;;;;;;47.58;21.63;;;;;;;4.99;90.38;100173.09;5200343;28;20021;-73
2024/03/09 00:41:04;;;;;;;42.83;22.15;;;;;;;5.04;90.12;100170.44;5203262;28;20036;-73
2024/03/09 00:43:37;;;;;;;41.85;20.23;;;;;;;5.06;90.12;100173.84;5204956;28;20029;-73
2024/03/09 00:46:08;;;;;;;46.72;21.95;;;;;;;5.01;90.29;100170.50;5203839;28;20571;-74
2024/03/09 00:48:39;;;;;;;41.78;20.95;;;;;;;5.06;90.31;100164.34;5198540;28;20112;-73
2024/03/09 00:51:10;;;;;;;44.08;21.98;;;;;;;4.94;90.27;100174.94;5199288;28;20112;-74
2024/03/09 00:53:40;;;;;;;43.53;20.63;;;;;;;4.93;90.63;100168.06;5203058;28;20657;-73
2024/03/09 00:56:11;;;;;;;45.60;20.45;;;;;;;4.91;91.03;100158.59;5199340;28;20123;-73
2024/03/09 00:58:42;;;;;;;46.58;21.55;;;;;;;4.90;90.86;100156.91;5200016;28;20033;-73
2024/03/09 01:01:12;;;;;;;42.28;20.27;;;;;;;4.98;90.68;100150.69;5205436;28;20032;-74
2024/03/09 01:03:42;;;;;;;48.40;21.75;;;;;;;4.77;91.98;100153.69;5205541;28;20037;-73
2024/03/09 01:06:15;;;;;;;43.10;21.95;;;;;;;4.78;91.96;100146.81;5209848;28;20079;-74
2024/03/09 01:08:45;;;;;;;48.63;22.42;;;;;;;4.76;92.21;100144.22;5205567;28;20044;-73
2024/03/09 01:11:19;;;;;;;43.28;20.67;;;;;;;4.78;92.31;100151.97;5205887;28;20028;-73
2024/03/09 01:13:49;;;;;;;42.83;21.08;;;;;;;4.74;91.98;100148.59;5203680;28;20112;-73
2024/03/09 01:16:19;;;;;;;44.50;21.40;;;;;;;4.81;91.92;100142.41;5208677;28;20482;-73
2024/03/09 01:18:50;;;;;;;44.40;21.38;;;;;;;4.75;91.60;100139.94;5206176;28;20036;-74
2024/03/09 01:21:20;;;;;;;44.22;21.50;;;;;;;4.74;92.47;100138.25;5200828;28;20409;-74
2024/03/09 01:23:50;;;;;;;49.53;21.83;;;;;;;4.82;92.05;100136.34;5206738;28;20041;-73
2024/03/09 01:26:22;;;;;;;47.83;21.25;;;;;;;4.70;92.31;100136.59;5208007;28;20067;-73
2024/03/09 01:28:54;;;;;;;50.25;21.02;;;;;;;4.70;92.11;100133.13;5207628;28;20383;-73
2024/03/09 01:31:28;;;;;;;43.50;21.20;;;;;;;4.70;92.19;100139.19;5210482;28;20453;-73
2024/03/09 01:34:02;;;;;;;43.87;20.83;;;;;;;4.64;92.35;100136.69;5207259;28;20033;-74
2024/03/09 01:36:33;;;;;;;45.95;21.90;;;;;;;4.72;91.45;100121.88;5208829;28;20028;-74
2024/03/09 01:39:03;;;;;;;46.35;21.95;;;;;;;4.72;91.92;100126.19;5208107;28;20120;-73
2024/03/09 01:41:34;;;;;;;42.72;21.02;;;;;;;4.72;92.51;100127.06;5210912;28;20774;-74
2024/03/09 01:44:04;;;;;;;47.40;20.88;;;;;;;4.59;92.16;100128.16;5206284;28;20022;-74
2024/03/09 01:46:35;;;;;;;50.42;23.40;;;;;;;4.73;92.21;100123.59;5206848;28;20025;-74
2024/03/09 01:49:06;;;;;;;42.15;20.98;;;;;;;4.77;91.48;100120.06;5206129;28;20109;-74
2024/03/09 01:51:36;;;;;;;47.00;20.88;;;;;;;4.77;91.91;100119.22;5198502;28;20504;-74
2024/03/09 01:54:10;;;;;;;43.72;21.38;;;;;;;4.71;92.02;100111.56;5194639;28;20121;-73
2024/03/09 01:56:40;;;;;;;46.58;21.15;;;;;;;4.75;91.61;100111.47;5202133;28;20116;-74
2024/03/09 01:59:11;;;;;;;47.92;22.35;;;;;;;4.54;91.83;100114.47;5197113;28;20120;-74
2024/03/09 02:01:42;;;;;;;47.78;21.88;;;;;;;4.45;93.37;100112.03;5201915;28;20048;-73
2024/03/09 02:04:13;;;;;;;46.05;21.45;;;;;;;4.34;93.90;100107.97;5198275;28;20061;-74
2024/03/09 02:06:43;;;;;;;52.85;22.38;;;;;;;4.18;94.21;100104.81;5204328;28;20052;-74
2024/03/09 02:09:15;;;;;;;43.42;21.63;;;;;;;3.99;95.07;100095.63;5202257;28;20529;-73
2024/03/09 02:11:47;;;;;;;49.10;22.98;;;;;;;3.92;95.18;100094.03;5205507;28;20155;-73
2024/03/09 02:14:18;;;;;;;47.95;22.45;;;;;;;3.84;96.41;100100.22;5201652;28;20425;-73
2024/03/09 02:16:50;;;;;;;49.80;23.67;;;;;;;3.70;96.50;100092.69;5200297;28;20025;-73
2024/03/09 02:19:20;;;;;;;49.88;23.27;;;;;;;3.77;98.30;100091.72;5203044;28;20025;-73
2024/03/09 02:21:52;;;;;;;48.83;22.98;;;;;;;3.72;98.36;100093.53;5202322;28;20055;-75
2024/03/09 02:24:26;;;;;;;48.85;23.23;;;;;;;3.82;98.43;100087.31;5203262;28;20032;-73
2024/03/09 02:26:59;;;;;;;48.78;23.80;;;;;;;3.88;98.15;100082.06;5207093;28;20545;-74
2024/03/09 02:29:30;;;;;;;50.17;24.92;;;;;;;3.89;98.03;100064.81;5207139;28;20032;-73
2024/03/09 02:32:01;;;;;;;49.10;22.25;;;;;;;3.89;98.08;100065.66;5205130;28;20056;-73
2024/03/09 02:34:31;;;;;;;50.15;23.45;;;;;;;3.91;97.45;100065.63;5206533;28;20053;-74
2024/03/09 02:37:02;;;;;;;44.95;22.65;;;;;;;3.85;98.13;100064.03;5205705;28;20212;-73
2024/03/09 02:39:33;;;;;;;51.65;23.83;;;;;;;3.81;98.35;100064.94;5204480;28;20513;-72
2024/03/09 02:42:04;;;;;;;51.97;23.58;;;;;;;3.84;98.06;100064.91;5209796;28;20029;-74
2024/03/09 02:44:35;;;;;;;52.42;22.63;;;;;;;3.88;97.48;100056.22;5205712;28;20509;-73
2024/03/09 02:47:07;;;;;;;47.30;21.90;;;;;;;3.81;98.48;100058.94;5204615;28;20132;-73
2024/03/09 02:49:38;;;;;;;48.22;22.52;;;;;;;3.82;97.80;100061.47;5202220;28;20120;-73
2024/03/09 02:52:09;;;;;;;46.92;22.42;;;;;;;3.82;98.00;100050.28;5206317;28;20029;-73
2024/03/09 02:54:39;;;;;;;52.03;23.75;;;;;;;3.74;98.51;100047.84;5204171;28;20033;-73
2024/03/09 02:57:12;;;;;;;48.33;22.58;;;;;;;3.75;98.12;100046.97;5206766;28;20503;-73
2024/03/09 02:59:46;;;;;;;48.05;22.27;;;;;;;3.71;98.65;100045.31;5202088;28;20033;-73
2024/03/09 03:05:05;;;;;;;43.60;20.67;;;;;;;3.70;98.72;100046.19;5208497;28;20033;-74
2024/03/09 03:07:35;;;;;;;46.00;22.20;;;;;;;3.64;98.83;100051.44;5202186;28;20029;-73
2024/03/09 03:10:08;;;;;;;48.80;22.80;;;;;;;3.64;98.49;100051.44;5202639;28;20033;-74
2024/03/09 03:12:38;;;;;;;47.45;21.92;;;;;;;3.67;98.75;100043.66;5200801;28;20040;-74
2024/03/09 03:15:08;;;;;;;47.03;22.15;;;;;;;3.70;98.95;100042.75;5200376;28;20548;-73
2024/03/09 03:17:39;;;;;;;47.45;22.35;;;;;;;3.65;98.91;100041.97;5203842;28;20029;-74
2024/03/09 03:20:09;;;;;;;45.13;21.13;;;;;;;3.60;98.53;100041.19;5207582;28;20025;-73
2024/03/09 03:22:40;;;;;;;45.75;21.40;;;;;;;3.59;99.25;100042.91;5202905;28;20037;-73
2024/03/09 03:25:10;;;;;;;42.95;22.08;;;;;;;3.58;99.18;100039.50;5201939;28;20056;-73
2024/03/09 03:27:42;;;;;;;45.80;21.80;;;;;;;3.58;99.15;100032.63;5203998;28;20087;-74
2024/03/09 03:30:15;;;;;;;47.78;21.80;;;;;;;3.61;98.47;100033.41;5201004;28;20029;-73
2024/03/09 03:32:46;;;;;;;45.53;21.23;;;;;;;3.54;99.09;100037.84;5202694;28;20025;-75
2024/03/09 03:35:17;;;;;;;54.10;21.95;;;;;;;3.66;99.22;100028.16;5214164;28;20025;-74
2024/03/09 03:37:48;;;;;;;44.45;20.58;;;;;;;3.64;98.22;100035.94;5206373;28;20394;-74
2024/03/09 03:40:18;;;;;;;45.88;20.95;;;;;;;3.68;98.37;100029.88;5208045;28;20024;-73
2024/03/09 03:42:50;;;;;;;43.00;20.50;;;;;;;3.59;98.06;100032.59;5202894;28;20025;-74
2024/03/09 03:45:21;;;;;;;42.50;20.00;;;;;;;3.56;98.44;100033.53;5208571;28;20032;-74
2024/03/09 03:50:29;;;;;;;45.03;20.77;;;;;;;3.59;98.37;100039.50;5226666;23;20045;-73
2024/03/09 03:53:04;;;;;;;42.95;19.20;;;;;;;3.52;98.34;100034.44;5202866;28;20030;-73
2024/03/09 03:55:34;;;;;;;44.05;21.35;;;;;;;3.59;98.82;100027.41;5205364;28;20032;-73
2024/03/09 03:58:06;;;;;;;42.05;20.48;;;;;;;3.58;98.26;100035.22;5207746;28;20195;-73
2024/03/09 04:00:37;;;;;;;43.45;20.42;;;;;;;3.50;98.91;100026.72;5208354;28;20124;-73
2024/03/09 04:03:07;;;;;;;45.42;20.70;;;;;;;3.55;98.77;100024.06;5204343;28;20025;-73
2024/03/09 04:05:38;;;;;;;43.20;19.30;;;;;;;3.46;98.68;100016.44;5205130;28;20124;-73
2024/03/09 04:08:08;;;;;;;44.42;19.90;;;;;;;3.55;98.40;100019.72;5205221;28;20058;-72
2024/03/09 04:10:38;;;;;;;41.95;19.52;;;;;;;3.48;98.66;100017.28;5208324;28;20080;-73
2024/03/09 04:13:13;;;;;;;42.78;20.38;;;;;;;3.54;98.23;100020.63;5210910;28;20398;-73
2024/03/09 04:15:44;;;;;;;42.38;19.65;;;;;;;3.54;98.03;100007.69;5210136;28;20108;-73
2024/03/09 04:18:14;;;;;;;42.40;19.92;;;;;;;3.52;97.74;100011.22;5211305;28;20040;-73
2024/03/09 04:20:45;;;;;;;39.17;19.40;;;;;;;3.45;98.30;100012.16;5205265;28;20029;-73
2024/03/09 04:23:18;;;;;;;42.50;19.20;;;;;;;3.40;99.01;100013.97;5207458;28;20066;-73
2024/03/09 04:25:58;;;;;;;45.55;20.02;;;;;;;3.43;99.49;100013.94;5205909;28;20048;-73
2024/03/09 04:28:28;;;;;;;46.22;19.80;;;;;;;3.39;98.80;100005.38;5212114;28;20586;-72
2024/03/09 04:30:59;;;;;;;42.03;19.17;;;;;;;3.48;98.56;100012.13;5208177;28;20041;-73
2024/03/09 04:33:30;;;;;;;42.10;19.25;;;;;;;3.46;98.40;100013.88;5211797;28;20074;-73
2024/03/09 04:36:01;;;;;;;43.30;19.65;;;;;;;3.50;97.74;100010.38;5208413;28;20112;-73
2024/03/09 04:38:35;;;;;;;41.17;18.63;;;;;;;3.50;97.48;100005.22;5202878;28;20159;-72
2024/03/09 04:41:05;;;;;;;46.53;19.60;;;;;;;3.42;98.27;100001.88;5201838;28;20112;-73
2024/03/09 04:43:38;;;;;;;41.33;19.88;;;;;;;3.48;98.64;99991.44;5205313;28;20155;-73
2024/03/09 04:46:08;;;;;;;43.10;19.00;;;;;;;3.43;98.64;100001.00;5204017;28;20550;-73
2024/03/09 04:48:38;;;;;;;43.45;19.33;;;;;;;3.38;97.94;99995.91;5206693;28;20033;-73
2024/03/09 04:51:08;;;;;;;39.95;19.02;;;;;;;3.47;98.59;99994.91;5202450;28;20475;-73
2024/03/09 04:53:39;;;;;;;41.72;18.80;;;;;;;3.46;97.93;99999.25;5203907;28;20025;-73
2024/03/09 04:56:09;;;;;;;39.22;18.38;;;;;;;3.47;97.37;100000.94;5201955;28;20395;-73
2024/03/09 04:58:39;;;;;;;39.10;19.27;;;;;;;3.46;97.77;99995.78;5206115;28;20068;-73
2024/03/09 05:01:09;;;;;;;45.20;18.55;;;;;;;3.43;98.10;99996.72;5200952;28;20312;-73
2024/03/09 05:03:40;;;;;;;41.97;19.35;;;;;;;3.30;97.88;99992.63;5204316;28;20037;-73
2024/03/09 05:06:12;;;;;;;40.88;19.73;;;;;;;3.32;98.51;99990.00;5203902;28;20033;-73
2024/03/09 05:08:44;;;;;;;40.38;17.75;;;;;;;3.38;98.28;99995.06;5205135;28;20044;-73
2024/03/09 05:11:14;;;;;;;41.30;18.98;;;;;;;3.27;98.12;99992.66;5211257;28;20490;-73
2024/03/09 05:13:45;;;;;;;45.30;20.02;;;;;;;3.30;97.74;99992.63;5205616;28;20036;-73
2024/03/09 05:16:16;;;;;;;41.08;19.33;;;;;;;3.19;97.58;99991.91;5210465;28;20111;-73
2024/03/09 05:18:47;;;;;;;45.53;20.02;;;;;;;3.22;98.83;99983.28;5208614;28;20033;-73
2024/03/09 05:21:17;;;;;;;42.75;19.20;;;;;;;3.22;99.11;99983.28;5210755;28;20663;-73
2024/03/09 05:23:48;;;;;;;41.33;19.35;;;;;;;3.22;98.96;99978.97;5208150;28;20132;-72
2024/03/09 05:26:18;;;;;;;42.58;19.75;;;;;;;3.11;99.06;99980.00;5210939;28;20090;-73
2024/03/09 05:28:49;;;;;;;44.25;19.65;;;;;;;3.07;99.64;99983.53;5207236;28;20252;-71
2024/03/09 05:31:30;;;;;;;46.10;19.92;;;;;;;3.07;98.81;99973.19;5220188;28;20115;-73
2024/03/09 05:34:00;;;;;;;41.28;20.20;;;;;;;3.03;99.20;99976.72;5218191;28;20498;-73
2024/03/09 05:36:31;;;;;;;43.28;20.00;;;;;;;2.99;99.24;99983.63;5202558;28;20059;-73
2024/03/09 05:39:01;;;;;;;44.10;19.98;;;;;;;3.04;99.48;99981.81;5205727;28;20490;-73
2024/03/09 05:41:36;;;;;;;47.83;20.75;;;;;;;3.02;99.56;99975.00;5210029;28;20505;-72
2024/03/09 05:44:06;;;;;;;39.85;19.25;;;;;;;2.98;99.49;99973.31;5207920;28;20064;-73
2024/03/09 05:46:36;;;;;;;50.30;19.33;;;;;;;2.97;99.90;99979.34;5207678;28;20441;-73
2024/03/09 05:49:08;;;;;;;43.42;20.63;;;;;;;2.96;100.00;99975.94;5202358;28;20029;-73
2024/03/09 05:51:38;;;;;;;43.92;20.25;;;;;;;3.00;100.00;99971.59;5204799;28;20399;-73
2024/03/09 05:54:09;;;;;;;47.85;21.35;;;;;;;2.93;100.00;99980.28;5206298;28;20029;-73
2024/03/09 05:56:40;;;;;;;42.28;19.17;;;;;;;2.99;100.00;99967.31;5207892;28;20029;-73
2024/03/09 05:59:11;;;;;;;45.38;20.10;;;;;;;3.06;99.86;99972.31;5208444;28;20034;-73
2024/03/09 06:01:41;;;;;;;45.45;20.52;;;;;;;3.08;99.86;99964.56;5201386;28;20479;-73
2024/03/09 06:04:12;;;;;;;48.38;19.80;;;;;;;3.10;99.87;99966.28;5199903;28;20040;-73
2024/03/09 06:06:42;;;;;;;49.63;21.13;;;;;;;3.06;99.44;99962.00;5200263;28;20556;-73
2024/03/09 06:09:13;;;;;;;43.92;19.08;;;;;;;3.05;99.91;99964.63;5196652;28;20030;-73
2024/03/09 06:11:47;;;;;;;40.17;19.05;;;;;;;3.04;99.90;99968.09;5201751;28;20091;-73
2024/03/09 06:14:20;;;;;;;40.45;18.88;;;;;;;3.17;99.94;99967.88;5204330;28;20017;-73
2024/03/09 06:16:51;;;;;;;43.42;19.27;;;;;;;2.99;100.00;99964.72;5202941;28;20021;-73
2024/03/09 06:19:21;;;;;;;45.10;19.85;;;;;;;3.09;100.00;99964.56;5200216;28;20037;-73
2024/03/09 06:21:52;;;;;;;36.45;16.90;;;;;;;3.06;100.00;99963.75;5200086;28;20523;-73
2024/03/09 06:24:22;;;;;;;45.65;20.65;;;;;;;3.04;100.00;99968.09;5195665;28;20030;-73
2024/03/09 06:26:52;;;;;;;45.28;20.23;;;;;;;2.95;100.00;99965.63;5200634;28;20029;-73
2024/03/09 06:29:23;;;;;;;43.80;19.77;;;;;;;2.98;100.00;99968.16;5191285;28;20065;-73
2024/03/09 06:31:54;;;;;;;43.72;19.25;;;;;;;3.08;100.00;99967.16;5197947;28;20487;-73
2024/03/09 06:34:25;;;;;;;46.50;19.83;;;;;;;3.15;100.00;99977.38;5200601;28;20021;-73
2024/03/09 06:36:55;;;;;;;41.13;18.98;;;;;;;3.26;100.00;99960.00;5202242;28;20450;-72
2024/03/09 06:39:30;;;;;;;43.10;18.60;;;;;;;3.49;99.67;99969.91;5191703;28;20052;-73
2024/03/09 06:42:01;;;;;;;40.17;19.20;;;;;;;3.58;98.91;99963.72;5198970;28;20063;-73
2024/03/09 06:44:32;;;;;;;39.35;18.17;;;;;;;3.66;98.78;99967.03;5195336;28;20466;-73
2024/03/09 06:47:06;;;;;;;44.40;19.75;;;;;;;3.68;97.64;99959.25;5193136;28;20129;-73
2024/03/09 06:49:37;;;;;;;39.90;18.10;;;;;;;3.87;96.66;99956.31;5195321;28;20506;-72
2024/03/09 06:52:07;;;;;;;44.63;19.15;;;;;;;3.65;97.62;99969.63;5192895;28;20029;-73
2024/03/09 06:54:37;;;;;;;37.92;17.65;;;;;;;3.80;97.63;99959.03;5203936;28;20443;-73
2024/03/09 06:57:11;;;;;;;37.83;17.80;;;;;;;3.86;97.01;99954.59;5194015;28;20167;-73
2024/03/09 06:59:41;;;;;;;40.47;15.98;;;;;;;3.76;97.21;99955.66;5203633;28;20037;-73
2024/03/09 07:02:13;;;;;;;42.03;17.75;;;;;;;4.05;96.74;99952.50;5202086;28;20490;-73
2024/03/09 07:04:50;;;;;;;39.13;18.50;;;;;;;4.25;96.23;99948.66;5202338;28;20036;-73
2024/03/09 07:07:20;;;;;;;38.42;17.60;;;;;;;4.33;95.80;99949.34;5188956;28;20364;-73
2024/03/09 07:09:51;;;;;;;35.67;17.25;;;;;;;4.37;94.74;99948.41;5202908;28;20258;-73
2024/03/09 07:12:21;;;;;;;38.25;17.60;;;;;;;4.40;94.58;99944.88;5205040;28;20497;-73
2024/03/09 07:14:51;;;;;;;35.10;17.05;;;;;;;4.50;95.04;99949.00;5204315;28;20039;-73
2024/03/09 07:17:21;;;;;;;39.97;17.27;;;;;;;4.58;93.98;99941.91;5207377;28;20034;-73
2024/03/09 07:19:52;;;;;;;38.75;17.50;;;;;;;4.68;93.43;99938.25;5203567;28;20406;-73
2024/03/09 07:22:22;;;;;;;38.78;17.20;;;;;;;4.58;93.42;99937.59;5210438;28;20032;-73
2024/03/09 07:24:53;;;;;;;36.70;17.17;;;;;;;4.61;93.23;99942.69;5197026;28;20613;-73
2024/03/09 07:27:23;;;;;;;35.08;16.15;;;;;;;4.86;92.77;99928.34;5194521;28;20153;-73
2024/03/09 07:29:55;;;;;;;35.95;17.20;;;;;;;5.01;92.42;99927.13;5196495;28;20021;-73
2024/03/09 07:32:26;;;;;;;34.67;16.45;;;;;;;5.78;89.91;99922.53;5214264;28;20025;-73
2024/03/09 07:34:56;;;;;;;31.48;15.30;;;;;;;7.51;83.07;99918.94;5197529;28;20020;-74
2024/03/09 07:37:26;;;;;;;34.97;15.73;;;;;;;8.60;78.30;99911.50;5196366;28;20037;-73
2024/03/09 07:39:57;;;;;;;28.98;14.38;;;;;;;9.35;74.76;99909.28;5196574;28;20264;-73
2024/03/09 07:42:27;;;;;;;31.48;14.65;;;;;;;9.71;73.06;99909.50;5198914;28;20486;-74
2024/03/09 07:44:57;;;;;;;29.10;13.98;;;;;;;9.82;71.50;99909.91;5202794;28;20579;-74
2024/03/09 07:47:28;;;;;;;29.83;14.82;;;;;;;9.89;71.46;99900.91;5196687;28;20475;-73
2024/03/09 07:49:58;;;;;;;31.67;13.57;;;;;;;10.43;69.71;99893.25;5199386;28;20490;-74
2024/03/09 07:52:29;;;;;;;28.40;14.45;;;;;;;10.71;69.36;99893.66;5198142;28;20078;-73
2024/03/09 07:54:59;;;;;;;26.23;13.77;;;;;;;10.91;67.90;99898.78;5195686;28;20029;-73
2024/03/09 07:57:29;;;;;;;27.58;14.63;;;;;;;11.06;67.81;99891.06;5201519;28;20485;-74
2024/03/09 07:59:59;;;;;;;25.48;13.68;;;;;;;10.96;67.87;99895.03;5195930;28;20083;-74
2024/03/09 08:02:30;;;;;;;23.88;12.95;;;;;;;11.29;68.26;99889.00;5200832;28;20029;-74
2024/03/09 08:05:04;;;;;;;22.75;12.50;;;;;;;11.93;66.31;99881.41;5195970;28;20425;-73
2024/03/09 08:07:35;;;;;;;24.38;13.55;;;;;;;11.85;65.73;99883.56;5198049;28;20129;-73
2024/03/09 08:10:06;;;;;;;26.90;13.90;;;;;;;12.21;65.29;99886.88;5192811;28;20030;-72
2024/03/09 08:12:36;;;;;;;25.15;13.43;;;;;;;12.44;65.41;99878.66;5199192;28;20030;-73
2024/03/09 08:15:08;;;;;;;23.17;12.80;;;;;;;12.23;65.79;99883.25;5203610;28;20021;-74
2024/03/09 08:17:39;;;;;;;26.55;13.95;;;;;;;12.39;63.30;99876.28;5195114;28;20102;-74
2024/03/09 08:20:14;;;;;;;27.08;12.98;;;;;;;12.59;65.25;99873.41;5197937;28;20075;-74
2024/03/09 08:22:45;;;;;;;23.23;12.82;;;;;;;12.31;64.65;99872.38;5200607;28;20486;-74
2024/03/09 08:25:17;;;;;;;23.55;13.05;;;;;;;12.35;64.29;99869.50;5194520;28;20343;-74
2024/03/09 08:27:49;;;;;;;21.45;11.93;;;;;;;12.61;64.70;99868.94;5201982;28;20087;-75
2024/03/09 08:30:20;;;;;;;21.23;12.07;;;;;;;12.90;63.23;99863.75;5193442;28;20033;-73
2024/03/09 08:32:54;;;;;;;22.00;12.30;;;;;;;13.12;62.49;99858.16;5197505;28;20121;-74
2024/03/09 08:35:27;;;;;;;22.23;11.93;;;;;;;13.07;61.91;99850.56;5203171;28;20029;-73
2024/03/09 08:37:57;;;;;;;21.77;11.98;;;;;;;13.41;62.04;99854.72;5201024;28;20557;-73
2024/03/09 08:40:30;;;;;;;22.70;12.25;;;;;;;13.23;62.47;99850.53;5200822;28;20025;-73
2024/03/09 08:43:00;;;;;;;21.90;11.63;;;;;;;12.91;62.91;99861.97;5203459;28;20291;-74
2024/03/09 08:45:33;;;;;;;22.58;11.75;;;;;;;12.54;63.54;99854.47;5197112;28;20045;-74
2024/03/09 08:48:04;;;;;;;24.88;13.38;;;;;;;12.55;62.84;99855.31;5201503;28;20044;-74
2024/03/09 08:50:36;;;;;;;22.52;12.10;;;;;;;12.35;63.70;99858.19;5203459;28;20080;-73
2024/03/09 08:53:06;;;;;;;21.75;12.32;;;;;;;12.80;63.29;99856.47;5196676;28;20387;-74
2024/03/09 08:55:36;;;;;;;21.65;12.38;;;;;;;12.50;64.75;99844.25;5198545;28;20113;-74
2024/03/09 08:58:06;;;;;;;24.63;12.27;;;;;;;13.31;63.47;99858.81;5217047;28;20564;-74
2024/03/09 09:00:37;;;;;;;23.08;13.40;;;;;;;13.23;61.98;99850.53;5198358;28;20064;-74
2024/03/09 09:03:10;;;;;;;22.10;12.68;;;;;;;13.18;62.38;99853.41;5197900;28;20033;-72
2024/03/09 09:05:41;;;;;;;23.10;12.93;;;;;;;11.90;64.45;99851.00;5200521;28;20318;-73
2024/03/09 09:08:24;;;;;;;23.40;12.07;;;;;;;11.81;64.17;99843.59;5202883;28;20342;-74
2024/03/09 09:10:55;;;;;;;21.27;11.90;;;;;;;11.69;64.46;99846.88;5198056;28;20031;-74
2024/03/09 09:13:27;;;;;;;20.40;11.63;;;;;;;11.11;66.60;99844.63;5202467;28;20082;-73
2024/03/09 09:15:58;;;;;;;20.27;12.20;;;;;;;11.50;66.59;99838.25;5199930;28;20040;-74
2024/03/09 09:18:28;;;;;;;23.17;12.48;;;;;;;10.79;68.20;99849.72;5197524;28;20041;-74
2024/03/09 09:20:59;;;;;;;21.67;11.43;;;;;;;10.30;68.62;99835.50;5203607;28;20299;-73
2024/03/09 09:23:29;;;;;;;21.52;12.52;;;;;;;9.96;71.60;99842.31;5195728;28;20040;-74
2024/03/09 09:26:01;;;;;;;23.50;12.10;;;;;;;9.64;72.06;99837.66;5202067;28;20029;-73
2024/03/09 09:28:32;;;;;;;24.05;12.43;;;;;;;9.38;73.96;99838.78;5201941;28;20534;-73
2024/03/09 09:31:03;;;;;;;24.20;13.10;;;;;;;9.10;75.25;99831.31;5199483;28;20037;-74
2024/03/09 09:33:33;;;;;;;26.50;13.57;;;;;;;9.36;74.31;99832.78;5199304;28;20314;-73
2024/03/09 09:36:05;;;;;;;26.17;13.55;;;;;;;9.18;75.57;99827.47;5202108;28;20077;-74
2024/03/09 09:38:35;;;;;;;29.25;12.30;;;;;;;8.99;76.42;99816.13;5202055;28;20051;-73
2024/03/09 09:41:08;;;;;;;24.08;12.75;;;;;;;9.34;75.01;99812.91;5197060;28;20116;-73
2024/03/09 09:43:38;;;;;;;22.85;12.00;;;;;;;9.05;75.88;99808.03;5196054;28;20018;-73
2024/03/09 09:46:09;;;;;;;21.65;11.55;;;;;;;9.54;73.77;99808.53;5200131;28;20028;-74
2024/03/09 09:51:14;;;;;;;21.73;11.35;;;;;;;10.29;73.16;99794.63;5189339;28;20458;-72
2024/03/09 09:53:46;;;;;;;20.67;11.10;;;;;;;10.18;71.53;99783.84;5199470;28;20033;-72
2024/03/09 09:56:16;;;;;;;19.55;11.07;;;;;;;10.10;71.41;99785.97;5200025;28;20136;-73
2024/03/09 09:58:48;;;;;;;21.67;12.13;;;;;;;9.81;72.35;99773.38;5196595;28;20495;-73
2024/03/09 10:01:20;;;;;;;21.15;11.55;;;;;;;9.50;71.53;99788.69;5190922;28;20034;-73
2024/03/09 10:03:52;;;;;;;22.60;11.80;;;;;;;9.66;71.77;99784.47;5197450;28;20538;-73
2024/03/09 10:06:23;;;;;;;20.55;11.57;;;;;;;9.63;72.26;99797.66;5186730;28;20083;-74
2024/03/09 10:08:54;;;;;;;22.67;12.07;;;;;;;9.31;72.22;99782.56;5187067;28;20422;-74
2024/03/09 10:11:25;;;;;;;21.88;12.05;;;;;;;9.03;73.99;99785.59;5190977;28;20052;-74
2024/03/09 10:14:01;;;;;;;24.75;12.90;;;;;;;8.90;74.87;99777.41;5197673;28;20030;-73
2024/03/09 10:16:39;;;;;;;43.60;20.38;;;;;;;8.79;76.20;99771.81;5192953;28;20115;-74
2024/03/09 10:19:09;;;;;;;25.38;12.00;;;;;;;8.85;74.07;99786.31;5195863;28;20483;-73
2024/03/09 10:21:40;;;;;;;24.13;13.02;;;;;;;8.95;73.31;99782.44;5195466;28;20048;-73
2024/03/09 10:24:11;;;;;;;26.77;12.75;;;;;;;8.87;75.71;99784.53;5188220;28;20117;-74
2024/03/09 10:26:44;;;;;;;24.17;11.77;;;;;;;8.95;74.36;99780.69;5188257;28;20037;-74
2024/03/09 10:29:15;;;;;;;25.27;13.30;;;;;;;8.81;75.13;99774.34;5185972;28;20056;-74
2024/03/09 10:31:50;;;;;;;23.80;13.38;;;;;;;8.99;75.22;99784.88;5178386;28;20361;-73
2024/03/09 10:34:24;;;;;;;26.33;13.27;;;;;;;8.60;75.71;99783.91;5174146;28;20029;-74
2024/03/09 10:37:01;;;;;;;27.60;13.73;;;;;;;8.64;75.99;99769.84;5178192;28;20041;-73
2024/03/09 10:39:32;;;;;;;24.05;12.95;;;;;;;8.96;75.97;99774.56;5177744;28;20607;-73
2024/03/09 10:42:04;;;;;;;24.77;13.38;;;;;;;9.19;74.89;99771.81;5172639;28;20335;-74
2024/03/09 10:44:35;;;;;;;24.25;12.07;;;;;;;9.11;73.54;99771.31;5184356;28;20267;-73
2024/03/09 10:47:12;;;;;;;24.52;11.95;;;;;;;9.38;73.60;99773.59;5182449;28;20037;-74
2024/03/09 10:49:45;;;;;;;20.95;11.20;;;;;;;9.32;72.78;99773.00;5180743;28;20567;-74
2024/03/09 10:52:19;;;;;;;23.30;11.55;;;;;;;9.46;73.08;99776.69;5178395;28;20034;-75
2024/03/09 10:54:59;;;;;;;20.33;10.65;;;;;;;9.74;74.26;99761.53;5180734;28;20108;-73
2024/03/09 10:57:29;;;;;;;22.13;11.15;;;;;;;9.70;72.59;99756.50;5171815;28;20095;-74
2024/03/09 11:00:00;;;;;;;20.75;11.25;;;;;;;10.03;73.26;99757.59;5166856;28;20491;-74
2024/03/09 11:02:34;;;;;;;20.42;11.30;;;;;;;10.37;73.48;99757.72;5159233;28;20038;-73
2024/03/09 11:05:07;;;;;;;19.70;11.25;;;;;;;10.56;72.16;99750.69;5173493;28;20360;-74
2024/03/09 11:07:38;;;;;;;22.50;10.98;;;;;;;10.47;70.46;99754.59;5176646;28;20503;-74
2024/03/09 11:10:09;;;;;;;20.58;10.70;;;;;;;9.77;72.16;99763.13;5172211;28;20026;-74
2024/03/09 11:12:40;;;;;;;24.63;12.23;;;;;;;10.17;71.82;99756.03;5178049;28;20045;-74
2024/03/09 11:15:13;;;;;;;24.27;11.70;;;;;;;10.32;73.49;99746.66;5174679;28;20025;-74
2024/03/09 11:17:44;;;;;;;21.73;12.13;;;;;;;10.61;73.35;99746.94;5176815;28;20029;-73
2024/03/09 11:20:20;;;;;;;22.75;11.50;;;;;;;10.31;73.55;99732.72;5180030;28;20025;-74
2024/03/09 11:22:52;;;;;;;22.38;12.02;;;;;;;9.53;75.44;99749.44;5171749;28;20065;-74
2024/03/09 11:25:45;;;;;;;25.23;13.00;;;;;;;10.04;74.50;99741.03;5167516;28;20026;-74
2024/03/09 11:28:16;;;;;;;22.60;12.32;;;;;;;10.08;74.69;99745.19;5167751;28;20041;-74
2024/03/09 11:30:57;;;;;;;23.52;12.65;;;;;;;10.08;73.64;99735.59;5175113;28;20026;-74
2024/03/09 11:33:30;;;;;;;23.13;12.88;;;;;;;9.67;74.11;99733.16;5174240;28;20029;-74
2024/03/09 11:36:01;;;;;;;23.50;12.32;;;;;;;9.44;76.40;99751.59;5173418;28;20034;-73
2024/03/09 11:38:35;;;;;;;24.60;12.57;;;;;;;9.56;76.87;99738.88;5174962;28;20108;-74
2024/03/09 11:41:06;;;;;;;29.52;14.23;;;;;;;9.45;76.93;99737.66;5171787;28;20535;-74
2024/03/09 11:43:37;;;;;;;26.73;13.57;;;;;;;10.02;77.30;99725.44;5168922;28;20057;-75
2024/03/09 11:46:09;;;;;;;28.80;13.57;;;;;;;9.74;75.23;99726.75;5164951;28;20026;-74